sensor_id;sensor_type;location;lat;lon;timestamp;P1;durP1;ratioP1;P2;durP2;ratioP2
44536;SDS011;30245;51.966;6.292;2022-09-09T00:00:25;1.52;;;0.40;;
44536;SDS011;30245;51.966;6.292;2022-09-09T00:11:46;2.83;;;2.55;;
44536;SDS011;30245;51.966;6.292;2022-09-09T00:14:37;4.95;;;4.40;;
44536;SDS011;30245;51.966;6.292;2022-09-09T00:17:04;7.40;;;5.05;;
44536;SDS011;30245;51.966;6.292;2022-09-09T00:23:05;9.13;;;4.57;;
44536;SDS011;30245;51.966;6.292;2022-09-09T00:28:23;5.47;;;4.57;;
44536;SDS011;30245;51.966;6.292;2022-09-09T00:30:51;8.45;;;5.15;;
44536;SDS011;30245;51.966;6.292;2022-09-09T00:33:19;7.20;;;3.83;;
44536;SDS011;30245;51.966;6.292;2022-09-09T00:35:49;5.53;;;2.50;;
44536;SDS011;30245;51.966;6.292;2022-09-09T00:41:21;5.78;;;2.35;;
44536;SDS011;30245;51.966;6.292;2022-09-09T00:44:06;2.97;;;2.35;;
44536;SDS011;30245;51.966;6.292;2022-09-09T00:57:36;4.45;;;3.33;;
44536;SDS011;30245;51.966;6.292;2022-09-09T01:00:22;4.93;;;3.53;;
44536;SDS011;30245;51.966;6.292;2022-09-09T01:03:12;4.80;;;2.75;;
44536;SDS011;30245;51.966;6.292;2022-09-09T01:12:09;4.45;;;2.70;;
44536;SDS011;30245;51.966;6.292;2022-09-09T01:14:44;5.30;;;4.78;;
44536;SDS011;30245;51.966;6.292;2022-09-09T01:17:14;11.40;;;8.55;;
44536;SDS011;30245;51.966;6.292;2022-09-09T01:19:58;8.45;;;6.93;;
44536;SDS011;30245;51.966;6.292;2022-09-09T01:22:35;8.32;;;7.50;;
44536;SDS011;30245;51.966;6.292;2022-09-09T01:27:55;4.60;;;3.53;;
44536;SDS011;30245;51.966;6.292;2022-09-09T01:30:23;2.17;;;1.77;;
44536;SDS011;30245;51.966;6.292;2022-09-09T01:32:55;2.93;;;1.80;;
44536;SDS011;30245;51.966;6.292;2022-09-09T01:38:01;3.55;;;2.28;;
44536;SDS011;30245;51.966;6.292;2022-09-09T01:40:27;3.00;;;2.70;;
44536;SDS011;30245;51.966;6.292;2022-09-09T01:42:53;3.67;;;3.03;;
44536;SDS011;30245;51.966;6.292;2022-09-09T01:45:19;4.07;;;3.08;;
44536;SDS011;30245;51.966;6.292;2022-09-09T01:47:46;6.95;;;6.13;;
44536;SDS011;30245;51.966;6.292;2022-09-09T01:50:13;10.70;;;8.18;;
44536;SDS011;30245;51.966;6.292;2022-09-09T01:52:40;10.57;;;9.43;;
44536;SDS011;30245;51.966;6.292;2022-09-09T01:55:07;11.13;;;9.23;;
44536;SDS011;30245;51.966;6.292;2022-09-09T02:00:23;7.72;;;4.90;;
44536;SDS011;30245;51.966;6.292;2022-09-09T02:05:36;2.28;;;1.65;;
44536;SDS011;30245;51.966;6.292;2022-09-09T02:08:08;3.67;;;0.80;;
44536;SDS011;30245;51.966;6.292;2022-09-09T02:13:20;1.45;;;0.95;;
44536;SDS011;30245;51.966;6.292;2022-09-09T02:15:49;1.50;;;1.10;;
44536;SDS011;30245;51.966;6.292;2022-09-09T02:18:23;1.52;;;0.95;;
44536;SDS011;30245;51.966;6.292;2022-09-09T02:20:52;2.50;;;1.38;;
44536;SDS011;30245;51.966;6.292;2022-09-09T02:23:18;7.32;;;1.70;;
44536;SDS011;30245;51.966;6.292;2022-09-09T02:25:45;1.60;;;0.70;;
44536;SDS011;30245;51.966;6.292;2022-09-09T02:28:12;1.60;;;0.50;;
44536;SDS011;30245;51.966;6.292;2022-09-09T02:30:40;1.10;;;0.97;;
44536;SDS011;30245;51.966;6.292;2022-09-09T02:33:07;0.80;;;0.27;;
44536;SDS011;30245;51.966;6.292;2022-09-09T02:35:35;1.58;;;0.50;;
44536;SDS011;30245;51.966;6.292;2022-09-09T02:38:03;0.70;;;0.38;;
44536;SDS011;30245;51.966;6.292;2022-09-09T02:40:34;0.80;;;0.30;;
44536;SDS011;30245;51.966;6.292;2022-09-09T02:42:59;0.70;;;0.30;;
44536;SDS011;30245;51.966;6.292;2022-09-09T02:45:27;1.55;;;0.20;;
44536;SDS011;30245;51.966;6.292;2022-09-09T02:56:36;0.90;;;0.30;;
44536;SDS011;30245;51.966;6.292;2022-09-09T02:59:09;0.50;;;0.20;;
44536;SDS011;30245;51.966;6.292;2022-09-09T03:01:35;0.50;;;0.20;;
44536;SDS011;30245;51.966;6.292;2022-09-09T03:04:01;0.57;;;0.30;;
44536;SDS011;30245;51.966;6.292;2022-09-09T03:06:28;0.65;;;0.28;;
44536;SDS011;30245;51.966;6.292;2022-09-09T03:08:53;1.02;;;0.30;;
44536;SDS011;30245;51.966;6.292;2022-09-09T03:11:19;1.00;;;0.50;;
44536;SDS011;30245;51.966;6.292;2022-09-09T03:13:44;0.50;;;0.30;;
44536;SDS011;30245;51.966;6.292;2022-09-09T03:16:10;0.85;;;0.30;;
44536;SDS011;30245;51.966;6.292;2022-09-09T03:18:35;0.85;;;0.38;;
44536;SDS011;30245;51.966;6.292;2022-09-09T03:21:01;1.05;;;0.30;;
44536;SDS011;30245;51.966;6.292;2022-09-09T03:23:26;0.40;;;0.30;;
44536;SDS011;30245;51.966;6.292;2022-09-09T03:25:53;0.80;;;0.40;;
44536;SDS011;30245;51.966;6.292;2022-09-09T03:28:21;0.98;;;0.70;;
44536;SDS011;30245;51.966;6.292;2022-09-09T03:30:48;1.60;;;0.70;;
44536;SDS011;30245;51.966;6.292;2022-09-09T03:33:14;1.00;;;0.38;;
44536;SDS011;30245;51.966;6.292;2022-09-09T03:35:44;0.77;;;0.38;;
44536;SDS011;30245;51.966;6.292;2022-09-09T03:38:12;0.80;;;0.32;;
44536;SDS011;30245;51.966;6.292;2022-09-09T03:40:38;0.90;;;0.45;;
44536;SDS011;30245;51.966;6.292;2022-09-09T03:43:04;1.67;;;0.65;;
44536;SDS011;30245;51.966;6.292;2022-09-09T03:45:29;0.68;;;0.40;;
44536;SDS011;30245;51.966;6.292;2022-09-09T03:47:55;1.27;;;0.50;;
44536;SDS011;30245;51.966;6.292;2022-09-09T03:50:22;0.60;;;0.30;;
44536;SDS011;30245;51.966;6.292;2022-09-09T03:52:48;1.17;;;0.70;;
44536;SDS011;30245;51.966;6.292;2022-09-09T03:55:14;1.70;;;0.40;;
44536;SDS011;30245;51.966;6.292;2022-09-09T03:57:39;2.10;;;0.40;;
44536;SDS011;30245;51.966;6.292;2022-09-09T04:00:06;1.00;;;0.40;;
44536;SDS011;30245;51.966;6.292;2022-09-09T04:02:33;2.75;;;0.50;;
44536;SDS011;30245;51.966;6.292;2022-09-09T04:04:58;0.98;;;0.50;;
44536;SDS011;30245;51.966;6.292;2022-09-09T04:07:24;1.15;;;0.50;;
44536;SDS011;30245;51.966;6.292;2022-09-09T04:09:52;0.80;;;0.40;;
44536;SDS011;30245;51.966;6.292;2022-09-09T04:12:18;1.02;;;0.45;;
44536;SDS011;30245;51.966;6.292;2022-09-09T04:14:43;2.25;;;0.70;;
44536;SDS011;30245;51.966;6.292;2022-09-09T04:17:09;1.27;;;0.50;;
44536;SDS011;30245;51.966;6.292;2022-09-09T04:19:35;1.08;;;0.50;;
44536;SDS011;30245;51.966;6.292;2022-09-09T04:22:00;0.95;;;0.40;;
44536;SDS011;30245;51.966;6.292;2022-09-09T04:24:26;1.33;;;0.70;;
44536;SDS011;30245;51.966;6.292;2022-09-09T04:26:54;0.80;;;0.50;;
44536;SDS011;30245;51.966;6.292;2022-09-09T04:29:20;1.73;;;0.40;;
44536;SDS011;30245;51.966;6.292;2022-09-09T04:31:45;1.95;;;0.40;;
44536;SDS011;30245;51.966;6.292;2022-09-09T04:34:11;3.50;;;0.47;;
44536;SDS011;30245;51.966;6.292;2022-09-09T04:36:37;1.55;;;0.60;;
44536;SDS011;30245;51.966;6.292;2022-09-09T04:39:02;1.23;;;0.40;;
44536;SDS011;30245;51.966;6.292;2022-09-09T04:41:28;1.20;;;0.77;;
44536;SDS011;30245;51.966;6.292;2022-09-09T04:43:53;1.83;;;0.88;;
44536;SDS011;30245;51.966;6.292;2022-09-09T04:46:20;1.52;;;0.30;;
44536;SDS011;30245;51.966;6.292;2022-09-09T04:48:48;0.88;;;0.35;;
44536;SDS011;30245;51.966;6.292;2022-09-09T04:51:14;2.92;;;0.40;;
44536;SDS011;30245;51.966;6.292;2022-09-09T04:53:40;1.02;;;0.50;;
44536;SDS011;30245;51.966;6.292;2022-09-09T04:56:06;1.83;;;0.52;;
44536;SDS011;30245;51.966;6.292;2022-09-09T04:58:35;2.30;;;0.98;;
44536;SDS011;30245;51.966;6.292;2022-09-09T05:01:08;1.75;;;0.60;;
44536;SDS011;30245;51.966;6.292;2022-09-09T05:03:35;2.60;;;0.80;;
44536;SDS011;30245;51.966;6.292;2022-09-09T05:08:30;1.55;;;0.57;;
44536;SDS011;30245;51.966;6.292;2022-09-09T05:10:56;1.45;;;0.50;;
44536;SDS011;30245;51.966;6.292;2022-09-09T05:13:24;1.40;;;0.50;;
44536;SDS011;30245;51.966;6.292;2022-09-09T05:15:53;1.67;;;0.98;;
44536;SDS011;30245;51.966;6.292;2022-09-09T05:18:19;1.33;;;0.40;;
44536;SDS011;30245;51.966;6.292;2022-09-09T05:20:47;1.55;;;0.95;;
44536;SDS011;30245;51.966;6.292;2022-09-09T05:23:14;1.58;;;0.60;;
44536;SDS011;30245;51.966;6.292;2022-09-09T05:25:39;2.33;;;0.70;;
44536;SDS011;30245;51.966;6.292;2022-09-09T05:28:08;1.67;;;0.40;;
44536;SDS011;30245;51.966;6.292;2022-09-09T05:30:34;1.55;;;0.77;;
44536;SDS011;30245;51.966;6.292;2022-09-09T05:32:59;4.47;;;0.70;;
44536;SDS011;30245;51.966;6.292;2022-09-09T05:35:25;2.53;;;0.70;;
44536;SDS011;30245;51.966;6.292;2022-09-09T05:37:51;3.00;;;0.90;;
44536;SDS011;30245;51.966;6.292;2022-09-09T05:40:17;3.95;;;0.60;;
44536;SDS011;30245;51.966;6.292;2022-09-09T05:42:43;3.53;;;1.00;;
44536;SDS011;30245;51.966;6.292;2022-09-09T05:45:09;2.45;;;0.70;;
44536;SDS011;30245;51.966;6.292;2022-09-09T05:47:35;2.53;;;0.50;;
44536;SDS011;30245;51.966;6.292;2022-09-09T05:50:02;2.67;;;0.50;;
44536;SDS011;30245;51.966;6.292;2022-09-09T05:52:28;4.65;;;0.98;;
44536;SDS011;30245;51.966;6.292;2022-09-09T05:54:53;3.63;;;0.70;;
44536;SDS011;30245;51.966;6.292;2022-09-09T05:57:20;2.65;;;0.93;;
44536;SDS011;30245;51.966;6.292;2022-09-09T05:59:45;3.67;;;0.40;;
44536;SDS011;30245;51.966;6.292;2022-09-09T06:02:11;1.95;;;0.70;;
44536;SDS011;30245;51.966;6.292;2022-09-09T06:04:38;2.30;;;0.60;;
44536;SDS011;30245;51.966;6.292;2022-09-09T06:07:04;5.55;;;1.02;;
44536;SDS011;30245;51.966;6.292;2022-09-09T06:09:30;4.18;;;0.32;;
44536;SDS011;30245;51.966;6.292;2022-09-09T06:11:55;2.58;;;0.60;;
44536;SDS011;30245;51.966;6.292;2022-09-09T06:14:22;3.22;;;0.60;;
44536;SDS011;30245;51.966;6.292;2022-09-09T06:16:48;6.75;;;0.60;;
44536;SDS011;30245;51.966;6.292;2022-09-09T06:19:13;2.00;;;0.70;;
44536;SDS011;30245;51.966;6.292;2022-09-09T06:21:39;3.03;;;0.65;;
44536;SDS011;30245;51.966;6.292;2022-09-09T06:24:05;3.53;;;0.47;;
44536;SDS011;30245;51.966;6.292;2022-09-09T06:26:36;3.67;;;0.60;;
44536;SDS011;30245;51.966;6.292;2022-09-09T06:29:05;4.18;;;0.77;;
44536;SDS011;30245;51.966;6.292;2022-09-09T06:31:32;6.03;;;0.40;;
44536;SDS011;30245;51.966;6.292;2022-09-09T06:33:59;0.98;;;0.40;;
44536;SDS011;30245;51.966;6.292;2022-09-09T06:38:59;2.22;;;0.40;;
44536;SDS011;30245;51.966;6.292;2022-09-09T06:41:26;1.60;;;1.05;;
44536;SDS011;30245;51.966;6.292;2022-09-09T06:43:54;1.75;;;0.50;;
44536;SDS011;30245;51.966;6.292;2022-09-09T06:46:23;1.58;;;0.30;;
44536;SDS011;30245;51.966;6.292;2022-09-09T06:48:53;4.18;;;0.63;;
44536;SDS011;30245;51.966;6.292;2022-09-09T06:51:25;4.65;;;0.77;;
44536;SDS011;30245;51.966;6.292;2022-09-09T06:53:53;2.97;;;0.40;;
44536;SDS011;30245;51.966;6.292;2022-09-09T06:58:53;1.63;;;0.40;;
44536;SDS011;30245;51.966;6.292;2022-09-09T07:01:22;4.28;;;0.40;;
44536;SDS011;30245;51.966;6.292;2022-09-09T07:03:49;4.63;;;0.47;;
44536;SDS011;30245;51.966;6.292;2022-09-09T07:06:23;3.78;;;0.60;;
44536;SDS011;30245;51.966;6.292;2022-09-09T07:08:55;5.05;;;0.73;;
44536;SDS011;30245;51.966;6.292;2022-09-09T07:11:25;2.42;;;1.13;;
44536;SDS011;30245;51.966;6.292;2022-09-09T07:13:54;6.13;;;1.98;;
44536;SDS011;30245;51.966;6.292;2022-09-09T07:16:22;4.13;;;1.13;;
44536;SDS011;30245;51.966;6.292;2022-09-09T07:18:49;3.78;;;1.70;;
44536;SDS011;30245;51.966;6.292;2022-09-09T07:21:16;9.40;;;1.33;;
44536;SDS011;30245;51.966;6.292;2022-09-09T07:23:42;5.70;;;1.25;;
44536;SDS011;30245;51.966;6.292;2022-09-09T07:26:11;3.70;;;1.00;;
44536;SDS011;30245;51.966;6.292;2022-09-09T07:28:39;6.32;;;1.85;;
44536;SDS011;30245;51.966;6.292;2022-09-09T07:31:06;5.60;;;1.15;;
44536;SDS011;30245;51.966;6.292;2022-09-09T07:33:38;5.03;;;0.93;;
44536;SDS011;30245;51.966;6.292;2022-09-09T07:36:07;4.88;;;1.17;;
44536;SDS011;30245;51.966;6.292;2022-09-09T07:38:41;6.43;;;1.52;;
44536;SDS011;30245;51.966;6.292;2022-09-09T07:41:09;4.18;;;1.70;;
44536;SDS011;30245;51.966;6.292;2022-09-09T07:43:41;2.78;;;0.50;;
44536;SDS011;30245;51.966;6.292;2022-09-09T07:46:08;9.20;;;1.30;;
44536;SDS011;30245;51.966;6.292;2022-09-09T07:48:34;5.72;;;1.05;;
44536;SDS011;30245;51.966;6.292;2022-09-09T07:51:08;3.60;;;0.65;;
44536;SDS011;30245;51.966;6.292;2022-09-09T07:53:36;4.60;;;0.45;;
44536;SDS011;30245;51.966;6.292;2022-09-09T07:56:07;2.05;;;0.52;;
44536;SDS011;30245;51.966;6.292;2022-09-09T07:58:38;4.00;;;0.30;;
44536;SDS011;30245;51.966;6.292;2022-09-09T08:03:34;5.38;;;0.50;;
44536;SDS011;30245;51.966;6.292;2022-09-09T08:06:01;3.78;;;0.65;;
44536;SDS011;30245;51.966;6.292;2022-09-09T08:08:31;4.75;;;0.68;;
44536;SDS011;30245;51.966;6.292;2022-09-09T08:13:38;4.75;;;1.17;;
44536;SDS011;30245;51.966;6.292;2022-09-09T08:16:08;7.45;;;0.55;;
44536;SDS011;30245;51.966;6.292;2022-09-09T08:18:36;4.68;;;0.57;;
44536;SDS011;30245;51.966;6.292;2022-09-09T08:21:12;4.38;;;0.60;;
44536;SDS011;30245;51.966;6.292;2022-09-09T08:23:42;4.05;;;0.60;;
44536;SDS011;30245;51.966;6.292;2022-09-09T08:26:15;3.30;;;0.25;;
44536;SDS011;30245;51.966;6.292;2022-09-09T08:28:42;3.33;;;0.30;;
44536;SDS011;30245;51.966;6.292;2022-09-09T08:31:09;3.20;;;0.20;;
44536;SDS011;30245;51.966;6.292;2022-09-09T08:33:38;6.45;;;0.57;;
44536;SDS011;30245;51.966;6.292;2022-09-09T08:36:04;3.45;;;0.30;;
44536;SDS011;30245;51.966;6.292;2022-09-09T08:38:31;11.30;;;0.70;;
44536;SDS011;30245;51.966;6.292;2022-09-09T08:41:16;4.88;;;0.47;;
44536;SDS011;30245;51.966;6.292;2022-09-09T08:49:44;7.97;;;0.60;;
44536;SDS011;30245;51.966;6.292;2022-09-09T08:52:16;3.10;;;0.88;;
44536;SDS011;30245;51.966;6.292;2022-09-09T08:54:46;1.70;;;0.30;;
44536;SDS011;30245;51.966;6.292;2022-09-09T08:57:14;4.28;;;0.77;;
44536;SDS011;30245;51.966;6.292;2022-09-09T08:59:46;2.85;;;0.55;;
44536;SDS011;30245;51.966;6.292;2022-09-09T09:02:16;2.42;;;0.63;;
44536;SDS011;30245;51.966;6.292;2022-09-09T09:05:02;2.88;;;0.40;;
44536;SDS011;30245;51.966;6.292;2022-09-09T09:12:50;6.03;;;0.40;;
44536;SDS011;30245;51.966;6.292;2022-09-09T09:15:18;1.98;;;0.20;;
44536;SDS011;30245;51.966;6.292;2022-09-09T09:17:48;3.25;;;0.50;;
44536;SDS011;30245;51.966;6.292;2022-09-09T09:20:14;4.18;;;0.57;;
44536;SDS011;30245;51.966;6.292;2022-09-09T09:30:42;3.55;;;0.68;;
44536;SDS011;30245;51.966;6.292;2022-09-09T09:33:21;4.22;;;0.40;;
44536;SDS011;30245;51.966;6.292;2022-09-09T09:36:08;2.10;;;0.20;;
44536;SDS011;30245;51.966;6.292;2022-09-09T09:38:34;3.60;;;0.32;;
44536;SDS011;30245;51.966;6.292;2022-09-09T09:41:00;1.55;;;0.22;;
44536;SDS011;30245;51.966;6.292;2022-09-09T09:43:28;2.90;;;0.20;;
44536;SDS011;30245;51.966;6.292;2022-09-09T09:46:04;5.50;;;0.43;;
44536;SDS011;30245;51.966;6.292;2022-09-09T09:48:42;3.05;;;0.63;;
44536;SDS011;30245;51.966;6.292;2022-09-09T09:51:11;5.03;;;0.60;;
44536;SDS011;30245;51.966;6.292;2022-09-09T09:53:41;1.90;;;0.35;;
44536;SDS011;30245;51.966;6.292;2022-09-09T09:56:09;1.88;;;0.20;;
44536;SDS011;30245;51.966;6.292;2022-09-09T10:01:32;2.03;;;0.20;;
44536;SDS011;30245;51.966;6.292;2022-09-09T10:04:01;5.70;;;0.50;;
44536;SDS011;30245;51.966;6.292;2022-09-09T10:06:39;3.70;;;0.32;;
44536;SDS011;30245;51.966;6.292;2022-09-09T10:09:22;2.70;;;0.40;;
44536;SDS011;30245;51.966;6.292;2022-09-09T10:12:07;5.28;;;0.70;;
44536;SDS011;30245;51.966;6.292;2022-09-09T10:24:23;4.10;;;0.70;;
44536;SDS011;30245;51.966;6.292;2022-09-09T10:26:58;2.92;;;0.38;;
44536;SDS011;30245;51.966;6.292;2022-09-09T10:32:37;2.17;;;0.52;;
44536;SDS011;30245;51.966;6.292;2022-09-09T10:35:24;3.22;;;0.70;;
44536;SDS011;30245;51.966;6.292;2022-09-09T10:38:03;2.10;;;0.50;;
44536;SDS011;30245;51.966;6.292;2022-09-09T10:56:25;4.03;;;0.90;;
44536;SDS011;30245;51.966;6.292;2022-09-09T10:58:58;1.73;;;0.57;;
44536;SDS011;30245;51.966;6.292;2022-09-09T11:01:36;1.08;;;0.20;;
44536;SDS011;30245;51.966;6.292;2022-09-09T11:04:08;5.63;;;1.00;;
44536;SDS011;30245;51.966;6.292;2022-09-09T11:06:48;0.70;;;0.13;;
44536;SDS011;30245;51.966;6.292;2022-09-09T11:09:18;4.50;;;0.50;;
44536;SDS011;30245;51.966;6.292;2022-09-09T11:11:52;1.80;;;0.20;;
44536;SDS011;30245;51.966;6.292;2022-09-09T11:16:56;4.60;;;0.88;;
44536;SDS011;30245;51.966;6.292;2022-09-09T11:19:35;2.47;;;0.52;;
44536;SDS011;30245;51.966;6.292;2022-09-09T11:22:23;8.65;;;1.48;;
44536;SDS011;30245;51.966;6.292;2022-09-09T11:24:57;1.27;;;0.40;;
44536;SDS011;30245;51.966;6.292;2022-09-09T11:38:25;4.43;;;1.02;;
44536;SDS011;30245;51.966;6.292;2022-09-09T11:40:55;3.40;;;0.73;;
44536;SDS011;30245;51.966;6.292;2022-09-09T11:43:31;2.95;;;1.08;;
44536;SDS011;30245;51.966;6.292;2022-09-09T11:46:04;2.70;;;0.63;;
44536;SDS011;30245;51.966;6.292;2022-09-09T11:48:33;4.03;;;0.93;;
44536;SDS011;30245;51.966;6.292;2022-09-09T11:51:45;2.33;;;0.60;;
44536;SDS011;30245;51.966;6.292;2022-09-09T11:53:53;5.63;;;0.75;;
44536;SDS011;30245;51.966;6.292;2022-09-09T11:56:32;5.20;;;0.73;;
44536;SDS011;30245;51.966;6.292;2022-09-09T11:59:20;2.83;;;0.83;;
44536;SDS011;30245;51.966;6.292;2022-09-09T12:01:55;3.63;;;0.30;;
44536;SDS011;30245;51.966;6.292;2022-09-09T12:12:24;2.17;;;0.20;;
44536;SDS011;30245;51.966;6.292;2022-09-09T12:15:00;1.00;;;0.10;;
44536;SDS011;30245;51.966;6.292;2022-09-09T12:17:46;0.57;;;0.10;;
44536;SDS011;30245;51.966;6.292;2022-09-09T12:20:21;1.67;;;0.15;;
44536;SDS011;30245;51.966;6.292;2022-09-09T12:25:47;5.63;;;0.40;;
44536;SDS011;30245;51.966;6.292;2022-09-09T12:28:21;4.90;;;0.20;;
44536;SDS011;30245;51.966;6.292;2022-09-09T12:31:08;1.30;;;0.10;;
44536;SDS011;30245;51.966;6.292;2022-09-09T12:33:42;0.80;;;0.20;;
44536;SDS011;30245;51.966;6.292;2022-09-09T12:36:17;1.95;;;0.40;;
44536;SDS011;30245;51.966;6.292;2022-09-09T12:38:46;1.95;;;0.68;;
44536;SDS011;30245;51.966;6.292;2022-09-09T12:41:25;0.98;;;0.13;;
44536;SDS011;30245;51.966;6.292;2022-09-09T12:44:02;1.67;;;0.20;;
44536;SDS011;30245;51.966;6.292;2022-09-09T12:46:34;2.75;;;0.20;;
44536;SDS011;30245;51.966;6.292;2022-09-09T12:49:05;3.10;;;0.22;;
44536;SDS011;30245;51.966;6.292;2022-09-09T12:51:46;3.58;;;0.82;;
44536;SDS011;30245;51.966;6.292;2022-09-09T12:54:12;3.53;;;0.75;;
44536;SDS011;30245;51.966;6.292;2022-09-09T12:56:40;5.10;;;1.42;;
44536;SDS011;30245;51.966;6.292;2022-09-09T13:00:03;4.78;;;1.45;;
44536;SDS011;30245;51.966;6.292;2022-09-09T13:02:01;3.33;;;0.88;;
44536;SDS011;30245;51.966;6.292;2022-09-09T13:04:27;2.75;;;1.02;;
44536;SDS011;30245;51.966;6.292;2022-09-09T13:06:53;3.67;;;0.90;;
44536;SDS011;30245;51.966;6.292;2022-09-09T13:09:18;3.10;;;1.35;;
44536;SDS011;30245;51.966;6.292;2022-09-09T13:11:46;5.82;;;1.17;;
44536;SDS011;30245;51.966;6.292;2022-09-09T13:14:16;3.75;;;0.50;;
44536;SDS011;30245;51.966;6.292;2022-09-09T13:16:57;2.33;;;0.50;;
44536;SDS011;30245;51.966;6.292;2022-09-09T13:19:25;2.13;;;0.50;;
44536;SDS011;30245;51.966;6.292;2022-09-09T13:21:53;1.95;;;0.55;;
44536;SDS011;30245;51.966;6.292;2022-09-09T13:24:23;1.60;;;0.30;;
44536;SDS011;30245;51.966;6.292;2022-09-09T13:26:58;1.90;;;0.45;;
44536;SDS011;30245;51.966;6.292;2022-09-09T13:29:29;1.38;;;0.20;;
44536;SDS011;30245;51.966;6.292;2022-09-09T13:32:05;1.92;;;0.20;;
44536;SDS011;30245;51.966;6.292;2022-09-09T13:34:33;6.40;;;0.50;;
44536;SDS011;30245;51.966;6.292;2022-09-09T13:37:06;1.17;;;0.20;;
44536;SDS011;30245;51.966;6.292;2022-09-09T13:42:27;3.63;;;0.30;;
44536;SDS011;30245;51.966;6.292;2022-09-09T13:44:58;4.20;;;0.82;;
44536;SDS011;30245;51.966;6.292;2022-09-09T13:47:33;1.65;;;0.55;;
44536;SDS011;30245;51.966;6.292;2022-09-09T13:50:15;1.98;;;0.10;;
44536;SDS011;30245;51.966;6.292;2022-09-09T13:52:48;3.50;;;0.47;;
44536;SDS011;30245;51.966;6.292;2022-09-09T14:00:17;2.78;;;0.25;;
44536;SDS011;30245;51.966;6.292;2022-09-09T14:02:42;1.75;;;0.20;;
44536;SDS011;30245;51.966;6.292;2022-09-09T14:05:09;2.67;;;0.45;;
44536;SDS011;30245;51.966;6.292;2022-09-09T14:07:36;1.83;;;0.30;;
44536;SDS011;30245;51.966;6.292;2022-09-09T14:10:04;2.13;;;0.50;;
44536;SDS011;30245;51.966;6.292;2022-09-09T14:12:30;2.60;;;0.30;;
44536;SDS011;30245;51.966;6.292;2022-09-09T14:14:55;0.68;;;0.30;;
44536;SDS011;30245;51.966;6.292;2022-09-09T14:17:21;3.33;;;0.20;;
44536;SDS011;30245;51.966;6.292;2022-09-09T14:19:47;2.17;;;0.20;;
44536;SDS011;30245;51.966;6.292;2022-09-09T14:22:12;2.70;;;0.22;;
44536;SDS011;30245;51.966;6.292;2022-09-09T14:24:38;2.17;;;0.15;;
44536;SDS011;30245;51.966;6.292;2022-09-09T14:27:04;0.95;;;0.30;;
44536;SDS011;30245;51.966;6.292;2022-09-09T14:29:29;1.48;;;0.30;;
44536;SDS011;30245;51.966;6.292;2022-09-09T14:31:55;1.33;;;0.20;;
44536;SDS011;30245;51.966;6.292;2022-09-09T14:34:20;0.93;;;0.10;;
44536;SDS011;30245;51.966;6.292;2022-09-09T14:36:46;2.20;;;0.30;;
44536;SDS011;30245;51.966;6.292;2022-09-09T14:39:12;2.20;;;0.20;;
44536;SDS011;30245;51.966;6.292;2022-09-09T14:41:37;1.17;;;0.30;;
44536;SDS011;30245;51.966;6.292;2022-09-09T14:44:03;2.45;;;0.38;;
44536;SDS011;30245;51.966;6.292;2022-09-09T14:46:29;2.80;;;0.25;;
44536;SDS011;30245;51.966;6.292;2022-09-09T14:48:54;2.13;;;0.30;;
44536;SDS011;30245;51.966;6.292;2022-09-09T14:51:22;3.85;;;0.20;;
44536;SDS011;30245;51.966;6.292;2022-09-09T14:56:19;3.30;;;0.65;;
44536;SDS011;30245;51.966;6.292;2022-09-09T14:58:47;3.35;;;0.30;;
44536;SDS011;30245;51.966;6.292;2022-09-09T15:01:17;2.67;;;0.43;;
44536;SDS011;30245;51.966;6.292;2022-09-09T15:03:48;1.58;;;0.30;;
44536;SDS011;30245;51.966;6.292;2022-09-09T15:06:18;6.65;;;0.30;;
44536;SDS011;30245;51.966;6.292;2022-09-09T15:08:45;2.60;;;0.37;;
44536;SDS011;30245;51.966;6.292;2022-09-09T15:11:12;1.05;;;0.30;;
44536;SDS011;30245;51.966;6.292;2022-09-09T15:13:38;5.05;;;1.00;;
44536;SDS011;30245;51.966;6.292;2022-09-09T15:18:32;2.85;;;0.38;;
44536;SDS011;30245;51.966;6.292;2022-09-09T15:20:59;0.93;;;0.20;;
44536;SDS011;30245;51.966;6.292;2022-09-09T15:23:28;1.08;;;0.32;;
44536;SDS011;30245;51.966;6.292;2022-09-09T15:28:22;4.60;;;0.50;;
44536;SDS011;30245;51.966;6.292;2022-09-09T15:30:48;1.88;;;0.35;;
44536;SDS011;30245;51.966;6.292;2022-09-09T15:33:15;1.35;;;0.40;;
44536;SDS011;30245;51.966;6.292;2022-09-09T15:35:41;1.10;;;0.10;;
44536;SDS011;30245;51.966;6.292;2022-09-09T15:38:06;1.45;;;0.20;;
44536;SDS011;30245;51.966;6.292;2022-09-09T15:40:32;1.58;;;0.20;;
44536;SDS011;30245;51.966;6.292;2022-09-09T15:42:58;2.58;;;0.57;;
44536;SDS011;30245;51.966;6.292;2022-09-09T15:45:24;1.10;;;0.55;;
44536;SDS011;30245;51.966;6.292;2022-09-09T15:47:49;2.75;;;0.45;;
44536;SDS011;30245;51.966;6.292;2022-09-09T15:50:15;2.80;;;0.82;;
44536;SDS011;30245;51.966;6.292;2022-09-09T15:52:41;1.70;;;0.40;;
44536;SDS011;30245;51.966;6.292;2022-09-09T15:55:07;1.80;;;0.32;;
44536;SDS011;30245;51.966;6.292;2022-09-09T15:57:33;3.03;;;0.65;;
44536;SDS011;30245;51.966;6.292;2022-09-09T16:00:00;0.88;;;0.22;;
44536;SDS011;30245;51.966;6.292;2022-09-09T16:04:53;1.35;;;0.45;;
44536;SDS011;30245;51.966;6.292;2022-09-09T16:07:19;0.55;;;0.10;;
44536;SDS011;30245;51.966;6.292;2022-09-09T16:09:45;1.55;;;0.20;;
44536;SDS011;30245;51.966;6.292;2022-09-09T16:12:11;1.05;;;0.28;;
44536;SDS011;30245;51.966;6.292;2022-09-09T16:14:37;0.88;;;0.25;;
44536;SDS011;30245;51.966;6.292;2022-09-09T16:17:04;1.25;;;0.20;;
44536;SDS011;30245;51.966;6.292;2022-09-09T16:19:31;0.95;;;0.30;;
44536;SDS011;30245;51.966;6.292;2022-09-09T16:21:57;0.85;;;0.50;;
44536;SDS011;30245;51.966;6.292;2022-09-09T16:24:23;1.17;;;0.20;;
44536;SDS011;30245;51.966;6.292;2022-09-09T16:26:52;2.40;;;0.60;;
44536;SDS011;30245;51.966;6.292;2022-09-09T16:29:19;1.08;;;0.10;;
44536;SDS011;30245;51.966;6.292;2022-09-09T16:31:47;0.77;;;0.20;;
44536;SDS011;30245;51.966;6.292;2022-09-09T16:34:14;1.63;;;0.43;;
44536;SDS011;30245;51.966;6.292;2022-09-09T16:36:42;2.83;;;0.20;;
44536;SDS011;30245;51.966;6.292;2022-09-09T16:39:15;1.13;;;0.10;;
44536;SDS011;30245;51.966;6.292;2022-09-09T16:41:44;1.30;;;0.20;;
44536;SDS011;30245;51.966;6.292;2022-09-09T16:44:11;0.43;;;0.10;;
44536;SDS011;30245;51.966;6.292;2022-09-09T16:46:39;1.70;;;0.20;;
44536;SDS011;30245;51.966;6.292;2022-09-09T16:51:34;1.40;;;0.20;;
44536;SDS011;30245;51.966;6.292;2022-09-09T16:54:06;1.95;;;0.43;;
44536;SDS011;30245;51.966;6.292;2022-09-09T16:56:34;2.10;;;0.30;;
44536;SDS011;30245;51.966;6.292;2022-09-09T16:59:02;2.22;;;0.30;;
44536;SDS011;30245;51.966;6.292;2022-09-09T17:03:58;3.97;;;0.20;;
44536;SDS011;30245;51.966;6.292;2022-09-09T17:06:29;0.85;;;0.20;;
44536;SDS011;30245;51.966;6.292;2022-09-09T17:09:00;1.38;;;0.10;;
44536;SDS011;30245;51.966;6.292;2022-09-09T17:11:27;1.55;;;0.10;;
44536;SDS011;30245;51.966;6.292;2022-09-09T17:13:53;2.80;;;0.22;;
44536;SDS011;30245;51.966;6.292;2022-09-09T17:16:19;1.00;;;0.10;;
44536;SDS011;30245;51.966;6.292;2022-09-09T17:18:47;0.47;;;0.10;;
44536;SDS011;30245;51.966;6.292;2022-09-09T17:21:15;5.05;;;0.47;;
44536;SDS011;30245;51.966;6.292;2022-09-09T17:23:43;0.52;;;0.10;;
44536;SDS011;30245;51.966;6.292;2022-09-09T17:26:11;3.05;;;0.10;;
44536;SDS011;30245;51.966;6.292;2022-09-09T17:28:39;0.60;;;0.28;;
44536;SDS011;30245;51.966;6.292;2022-09-09T17:31:07;4.53;;;0.30;;
44536;SDS011;30245;51.966;6.292;2022-09-09T17:33:34;0.95;;;0.20;;
44536;SDS011;30245;51.966;6.292;2022-09-09T17:36:02;0.40;;;0.22;;
44536;SDS011;30245;51.966;6.292;2022-09-09T17:38:36;1.75;;;0.22;;
44536;SDS011;30245;51.966;6.292;2022-09-09T17:41:07;1.15;;;0.40;;
44536;SDS011;30245;51.966;6.292;2022-09-09T17:43:35;1.05;;;0.17;;
44536;SDS011;30245;51.966;6.292;2022-09-09T17:46:12;1.52;;;0.20;;
44536;SDS011;30245;51.966;6.292;2022-09-09T17:48:42;1.40;;;0.22;;